createdAt,value
2022-10-28T00:03:43.268Z,85.07
2022-10-28T00:06:13.070Z,56.75
2022-10-28T00:08:40.638Z,54.33
2022-10-28T00:11:11.601Z,50.45
2022-10-28T00:13:39.863Z,103.13
2022-10-28T00:16:12.155Z,63.85
2022-10-28T00:18:40.202Z,93.32
2022-10-28T00:21:14.411Z,109.63
2022-10-28T00:23:41.890Z,110.70
2022-10-28T00:26:13.233Z,104.70
2022-10-28T00:28:45.419Z,77.90
2022-10-28T00:31:14.088Z,81.70
2022-10-28T00:33:41.932Z,72.78
2022-10-28T00:36:11.787Z,100.60
2022-10-28T00:38:40.010Z,119.70
2022-10-28T00:41:08.247Z,115.78
2022-10-28T00:43:37.815Z,92.07
2022-10-28T00:46:25.979Z,115.93
2022-10-28T00:49:19.061Z,122.93
2022-10-28T00:51:49.346Z,92.10
2022-10-28T00:56:49.151Z,80.75
2022-10-28T00:59:37.400Z,71.78
2022-10-28T01:02:05.742Z,80.45
2022-10-28T01:04:33.351Z,47.63
2022-10-28T01:07:02.041Z,122.72
2022-10-28T01:09:29.162Z,70.18
2022-10-28T01:12:17.743Z,95.47
2022-10-28T01:14:50.992Z,72.53
2022-10-28T01:17:37.505Z,87.85
2022-10-28T01:20:44.200Z,58.58
2022-10-28T01:23:36.751Z,71.35
2022-10-28T01:26:54.982Z,64.03
2022-10-28T01:29:49.839Z,68.93
2022-10-28T01:32:32.365Z,67.13
2022-10-28T01:35:38.751Z,73.00
2022-10-28T01:38:36.401Z,69.35
2022-10-28T01:41:17.792Z,70.43
2022-10-28T01:43:55.291Z,97.85
2022-10-28T01:46:28.603Z,82.28
2022-10-28T01:48:58.156Z,80.53
2022-10-28T01:51:54.711Z,75.47
2022-10-28T01:54:25.523Z,74.22
2022-10-28T01:56:57.067Z,106.70
2022-10-28T01:59:28.566Z,51.85
2022-10-28T02:01:56.658Z,76.85
2022-10-28T02:04:23.861Z,82.38
2022-10-28T02:06:54.799Z,97.75
2022-10-28T02:09:37.939Z,81.25
2022-10-28T02:12:28.982Z,103.22
2022-10-28T02:15:02.208Z,103.78
2022-10-28T02:17:48.542Z,70.38
2022-10-28T02:20:26.591Z,69.80
2022-10-28T02:23:23.458Z,53.55
2022-10-28T02:26:23.160Z,43.58
2022-10-28T02:29:05.574Z,72.47
2022-10-28T02:31:37.701Z,51.72
2022-10-28T02:34:10.064Z,75.03
2022-10-28T02:36:42.001Z,57.75
2022-10-28T02:39:09.110Z,47.85
2022-10-28T02:41:51.647Z,66.47
2022-10-28T02:44:25.504Z,71.18
2022-10-28T02:46:55.675Z,79.72
2022-10-28T02:49:24.681Z,65.85
2022-10-28T02:51:57.761Z,67.13
2022-10-28T02:54:55.355Z,51.45
2022-10-28T02:57:28.440Z,56.00
2022-10-28T02:59:59.262Z,60.60
2022-10-28T03:02:27.309Z,77.75
2022-10-28T03:04:54.381Z,75.53
2022-10-28T03:07:21.745Z,67.20
2022-10-28T03:09:49.007Z,47.85
2022-10-28T03:12:16.181Z,45.25
2022-10-28T03:14:43.341Z,45.33
2022-10-28T03:17:10.411Z,92.50
2022-10-28T03:19:37.684Z,84.95
2022-10-28T03:22:04.956Z,66.80
2022-10-28T03:24:32.223Z,78.55
2022-10-28T03:26:59.533Z,80.28
2022-10-28T03:29:26.747Z,62.35
2022-10-28T03:31:53.846Z,66.30
2022-10-28T03:34:21.031Z,55.88
2022-10-28T03:36:48.260Z,61.63
2022-10-28T03:39:15.796Z,64.60
2022-10-28T03:41:42.900Z,64.57
2022-10-28T03:44:10.210Z,86.88
2022-10-28T03:46:37.470Z,62.85
2022-10-28T03:49:04.867Z,70.13
2022-10-28T03:51:32.103Z,84.38
2022-10-28T03:53:59.440Z,55.60
2022-10-28T03:56:26.771Z,65.18
2022-10-28T03:58:54.134Z,61.28
2022-10-28T04:01:21.564Z,79.30
2022-10-28T04:03:48.852Z,59.15
2022-10-28T04:06:17.027Z,89.85
2022-10-28T04:08:44.167Z,65.95
2022-10-28T04:11:11.292Z,72.57
2022-10-28T04:13:38.530Z,73.47
2022-10-28T04:16:06.353Z,62.85
2022-10-28T04:18:33.651Z,66.82
2022-10-28T04:21:00.869Z,74.13
2022-10-28T04:23:28.150Z,59.80
2022-10-28T04:25:55.571Z,70.18
2022-10-28T04:28:26.325Z,77.35
2022-10-28T04:30:53.442Z,86.40
2022-10-28T04:33:20.565Z,83.05
2022-10-28T04:35:47.865Z,63.25
2022-10-28T04:38:15.836Z,65.22
2022-10-28T04:40:43.076Z,65.55
2022-10-28T04:43:12.048Z,63.92
2022-10-28T04:45:39.749Z,63.50
2022-10-28T04:48:07.115Z,66.85
2022-10-28T04:50:34.521Z,81.20
2022-10-28T04:53:10.741Z,92.35
2022-10-28T04:55:38.121Z,88.72
2022-10-28T04:58:05.374Z,81.53
2022-10-28T05:00:32.573Z,65.88
2022-10-28T05:03:03.407Z,78.00
2022-10-28T05:05:30.830Z,61.97
2022-10-28T05:07:58.165Z,70.82
2022-10-28T05:10:25.405Z,67.97
2022-10-28T05:12:52.497Z,82.70
2022-10-28T05:15:19.748Z,72.68
2022-10-28T05:17:47.813Z,71.30
2022-10-28T05:20:17.725Z,68.55
2022-10-28T05:22:50.455Z,70.28
2022-10-28T05:25:18.461Z,61.55
2022-10-28T05:27:45.870Z,66.05
2022-10-28T05:30:13.700Z,70.75
2022-10-28T05:32:41.123Z,72.35
2022-10-28T05:35:09.292Z,92.68
2022-10-28T05:37:36.637Z,68.35
2022-10-28T05:40:04.635Z,77.03
2022-10-28T05:42:32.087Z,83.82
2022-10-28T05:44:59.159Z,68.03
2022-10-28T05:47:26.436Z,75.93
2022-10-28T05:49:53.795Z,82.97
2022-10-28T05:52:21.063Z,72.72
2022-10-28T05:54:48.186Z,77.82
2022-10-28T05:57:15.391Z,76.60
2022-10-28T05:59:42.689Z,90.63
2022-10-28T06:02:16.001Z,88.60
2022-10-28T06:04:43.380Z,87.80
2022-10-28T06:07:10.662Z,85.45
2022-10-28T06:09:37.770Z,88.47
2022-10-28T06:12:05.718Z,81.68
2022-10-28T06:14:33.499Z,86.30
2022-10-28T06:17:00.728Z,92.82
2022-10-28T06:19:27.821Z,91.20
2022-10-28T06:21:55.027Z,81.70
2022-10-28T06:24:22.126Z,76.97
2022-10-28T06:26:49.211Z,85.53
2022-10-28T06:29:16.444Z,78.53
2022-10-28T06:31:43.667Z,71.30
2022-10-28T06:34:11.599Z,68.68
2022-10-28T06:36:38.826Z,80.57
2022-10-28T06:39:06.268Z,76.85
2022-10-28T06:41:33.955Z,78.10
2022-10-28T06:44:02.004Z,72.28
2022-10-28T06:46:29.326Z,72.57
2022-10-28T06:48:58.083Z,66.88
2022-10-28T06:51:25.257Z,77.65
2022-10-28T06:53:53.637Z,96.97
2022-10-28T06:56:20.747Z,81.95
2022-10-28T06:58:55.240Z,85.63
2022-10-28T07:01:23.047Z,79.53
2022-10-28T07:03:50.302Z,80.07
2022-10-28T07:06:17.943Z,67.00
2022-10-28T07:08:45.239Z,78.35
2022-10-28T07:11:12.757Z,73.22
2022-10-28T07:13:42.467Z,74.25
2022-10-28T07:16:11.553Z,78.50
2022-10-28T07:18:38.926Z,65.18
2022-10-28T07:21:06.666Z,68.05
2022-10-28T07:23:34.570Z,72.70
2022-10-28T07:26:02.004Z,78.10
2022-10-28T07:28:29.416Z,70.35
2022-10-28T07:31:02.026Z,71.85
2022-10-28T07:33:29.237Z,69.22
2022-10-28T07:35:56.404Z,63.03
2022-10-28T07:38:23.776Z,66.57
2022-10-28T07:40:50.855Z,63.03
2022-10-28T07:43:18.224Z,58.00
2022-10-28T07:45:45.658Z,58.65
2022-10-28T07:48:13.012Z,55.95
2022-10-28T07:50:43.363Z,53.53
2022-10-28T07:55:37.914Z,51.53
2022-10-28T07:58:05.373Z,50.55
2022-10-28T08:00:32.477Z,43.08
2022-10-28T08:02:59.601Z,45.90
2022-10-28T08:05:26.761Z,47.30
2022-10-28T08:07:54.224Z,42.58
2022-10-28T08:10:21.572Z,38.67
2022-10-28T08:12:49.066Z,40.85
2022-10-28T08:15:17.038Z,43.15
2022-10-28T08:17:44.088Z,38.47
2022-10-28T08:20:11.435Z,40.17
2022-10-28T08:22:38.611Z,34.58
2022-10-28T08:25:06.314Z,36.13
2022-10-28T08:27:33.591Z,35.88
2022-10-28T08:30:00.851Z,30.55
2022-10-28T08:32:28.059Z,32.08
2022-10-28T08:34:55.259Z,26.50
2022-10-28T08:37:22.524Z,29.80
2022-10-28T08:39:50.077Z,26.98
2022-10-28T08:42:58.804Z,29.55
2022-10-28T08:46:03.779Z,29.63
2022-10-28T08:48:35.651Z,26.55
2022-10-28T08:51:29.755Z,28.60
2022-10-28T08:54:07.028Z,25.00
2022-10-28T08:56:37.882Z,30.73
2022-10-28T08:59:07.736Z,25.42
2022-10-28T09:01:56.939Z,25.95
2022-10-28T09:04:44.771Z,23.73
2022-10-28T09:07:20.692Z,27.80
2022-10-28T09:09:50.148Z,28.77
2022-10-28T09:12:17.128Z,25.75
2022-10-28T09:15:27.203Z,27.50
2022-10-28T09:18:13.149Z,24.10
2022-10-28T09:20:48.476Z,26.35
2022-10-28T09:26:42.581Z,24.73
2022-10-28T09:29:35.746Z,22.90
2022-10-28T09:32:39.625Z,26.30
2022-10-28T09:35:13.326Z,21.58
2022-10-28T09:37:49.820Z,23.40
2022-10-28T09:40:29.925Z,24.77
2022-10-28T09:42:57.292Z,25.95
2022-10-28T09:45:29.179Z,23.75
2022-10-28T09:48:02.123Z,23.40
2022-10-28T09:50:33.649Z,24.25
2022-10-28T09:53:14.820Z,24.10
2022-10-28T09:55:42.195Z,23.90
2022-10-28T09:58:11.906Z,21.88
2022-10-28T10:00:39.787Z,20.98
2022-10-28T10:03:07.057Z,26.35
2022-10-28T10:05:39.380Z,20.50
2022-10-28T10:08:11.159Z,23.70
2022-10-28T10:10:55.048Z,20.73
2022-10-28T10:13:29.871Z,19.85
2022-10-28T10:16:32.173Z,19.65
2022-10-28T10:19:02.304Z,19.90
2022-10-28T10:21:55.811Z,22.88
2022-10-28T10:24:34.535Z,18.35
2022-10-28T10:27:21.413Z,21.15
2022-10-28T10:29:52.016Z,18.10
2022-10-28T10:32:27.698Z,17.80
2022-10-28T10:35:13.361Z,19.00
2022-10-28T10:37:46.025Z,21.77
2022-10-28T10:40:26.862Z,22.02
2022-10-28T10:43:12.809Z,17.70
2022-10-28T10:48:25.608Z,21.30
2022-10-28T10:50:54.511Z,14.95
2022-10-28T10:53:25.628Z,16.10
2022-10-28T10:56:05.175Z,14.57
2022-10-28T10:58:36.018Z,18.83
2022-10-28T11:01:06.520Z,15.95
2022-10-28T11:03:37.340Z,17.60
2022-10-28T11:06:24.403Z,16.85
2022-10-28T11:09:06.668Z,14.98
2022-10-28T11:14:32.734Z,18.92
2022-10-28T11:17:02.059Z,16.98
2022-10-28T11:22:34.493Z,17.75
2022-10-28T11:25:10.819Z,22.08
2022-10-28T11:27:37.987Z,16.85
2022-10-28T11:30:11.337Z,20.77
2022-10-28T11:33:07.957Z,20.48
2022-10-28T11:35:49.208Z,23.45
2022-10-28T11:44:44.706Z,20.42
2022-10-28T11:47:17.503Z,19.77
2022-10-28T11:50:15.734Z,18.52
2022-10-28T11:56:01.828Z,18.13
2022-10-28T11:58:42.044Z,23.35
2022-10-28T12:01:22.339Z,18.13
2022-10-28T12:04:08.190Z,22.23
2022-10-28T12:10:33.387Z,17.67
2022-10-28T12:16:38.787Z,18.80
2022-10-28T12:19:47.299Z,21.27
2022-10-28T12:22:36.206Z,24.95
2022-10-28T12:25:13.784Z,18.70
2022-10-28T12:27:44.193Z,20.65
2022-10-28T12:32:44.067Z,18.90
2022-10-28T12:35:30.957Z,21.23
2022-10-28T12:38:41.147Z,18.30
2022-10-28T12:41:21.134Z,19.73
2022-10-28T12:43:54.820Z,16.98
2022-10-28T12:46:45.344Z,19.80
2022-10-28T12:49:32.990Z,21.13
2022-10-28T12:52:08.558Z,21.48
2022-10-28T12:54:54.520Z,20.08
2022-10-28T12:57:23.600Z,21.48
2022-10-28T13:00:26.116Z,18.73
2022-10-28T13:03:04.545Z,17.48
2022-10-28T13:05:46.820Z,19.65
2022-10-28T13:08:24.030Z,18.15
2022-10-28T13:10:58.399Z,22.88
2022-10-28T13:14:07.290Z,23.33
2022-10-28T13:16:52.948Z,20.60
2022-10-28T13:19:36.967Z,20.88
2022-10-28T13:22:16.283Z,18.40
2022-10-28T13:25:31.396Z,18.17
2022-10-28T13:30:57.766Z,19.67
2022-10-28T13:36:41.826Z,19.13
2022-10-28T13:39:33.591Z,16.63
2022-10-28T13:42:12.946Z,16.83
2022-10-28T13:44:56.607Z,19.98
2022-10-28T13:47:27.680Z,15.80
2022-10-28T13:53:31.008Z,33.70
2022-10-28T13:55:59.014Z,19.98
2022-10-28T13:58:27.080Z,21.83
2022-10-28T14:00:55.368Z,17.48
2022-10-28T14:03:26.334Z,16.80
2022-10-28T14:05:57.645Z,17.02
2022-10-28T14:08:24.885Z,20.00
2022-10-28T14:11:22.594Z,17.90
2022-10-28T14:14:01.344Z,19.42
2022-10-28T14:16:39.166Z,16.38
2022-10-28T14:19:11.963Z,13.15
2022-10-28T14:21:51.219Z,19.02
2022-10-28T14:24:38.000Z,16.55
2022-10-28T14:27:08.453Z,18.35
2022-10-28T14:30:13.831Z,16.83
2022-10-28T14:33:11.518Z,16.40
2022-10-28T14:35:44.513Z,18.23
2022-10-28T14:39:08.759Z,16.30
2022-10-28T14:45:06.163Z,18.33
2022-10-28T14:50:50.858Z,17.05
2022-10-28T14:53:28.787Z,15.82
2022-10-28T14:56:03.157Z,18.38
2022-10-28T14:58:37.018Z,15.07
2022-10-28T15:01:10.259Z,16.35
2022-10-28T15:03:39.255Z,16.33
2022-10-28T15:06:24.192Z,16.83
2022-10-28T15:08:53.261Z,17.15
2022-10-28T15:11:21.271Z,15.60
2022-10-28T15:13:52.477Z,16.80
2022-10-28T15:16:24.767Z,19.13
2022-10-28T15:21:38.927Z,14.60
2022-10-28T15:24:08.426Z,18.20
2022-10-28T15:26:35.675Z,13.83
2022-10-28T15:32:24.793Z,18.25
2022-10-28T15:37:36.907Z,17.42
2022-10-28T15:40:20.854Z,18.48
2022-10-28T15:42:58.941Z,20.20
2022-10-28T15:45:31.963Z,18.70
2022-10-28T15:48:01.118Z,19.55
2022-10-28T15:50:32.655Z,20.35
2022-10-28T15:53:11.834Z,19.80
2022-10-28T15:56:06.954Z,19.00
2022-10-28T16:04:22.172Z,20.73
2022-10-28T16:06:58.464Z,15.25
2022-10-28T16:09:32.682Z,18.45
2022-10-28T16:12:04.795Z,20.60
2022-10-28T16:14:44.182Z,21.42
2022-10-28T16:20:17.310Z,23.98
2022-10-28T16:22:47.107Z,25.25
2022-10-28T16:25:17.236Z,23.88
2022-10-28T16:27:44.409Z,23.67
2022-10-28T16:30:12.205Z,24.00
2022-10-28T16:32:47.274Z,22.73
2022-10-28T16:35:20.247Z,22.33
2022-10-28T16:37:53.794Z,24.75
2022-10-28T16:40:50.911Z,23.25
2022-10-28T16:43:16.853Z,27.70
2022-10-28T16:45:44.094Z,22.92
2022-10-28T16:51:16.569Z,21.42
2022-10-28T16:53:47.534Z,28.83
2022-10-28T16:56:16.257Z,25.63
2022-10-28T16:58:44.439Z,22.10
2022-10-28T17:03:56.952Z,19.20
2022-10-28T17:06:24.234Z,21.63
2022-10-28T17:09:06.677Z,22.88
2022-10-28T17:11:34.076Z,22.83
2022-10-28T17:14:01.181Z,21.10
2022-10-28T17:16:28.470Z,23.73
2022-10-28T17:18:55.532Z,21.30
2022-10-28T17:21:22.643Z,31.45
2022-10-28T17:23:49.845Z,22.30
2022-10-28T17:26:17.140Z,22.70
2022-10-28T17:28:44.240Z,23.55
2022-10-28T17:33:56.489Z,23.33
2022-10-28T17:36:23.920Z,22.70
2022-10-28T17:38:51.218Z,23.17
2022-10-28T17:41:18.641Z,24.88
2022-10-28T17:43:45.996Z,23.20
2022-10-28T17:46:13.330Z,22.90
2022-10-28T17:48:40.691Z,22.33
2022-10-28T17:51:08.058Z,26.48
2022-10-28T17:53:35.266Z,24.77
2022-10-28T17:56:04.720Z,26.38
2022-10-28T17:58:32.611Z,21.48
2022-10-28T18:01:08.088Z,20.17
2022-10-28T18:03:38.487Z,21.20
2022-10-28T18:08:54.119Z,25.17
2022-10-28T18:11:21.661Z,28.83
2022-10-28T18:13:51.676Z,27.73
2022-10-28T18:16:24.472Z,28.30
2022-10-28T18:21:36.946Z,23.48
2022-10-28T18:24:04.583Z,22.13
2022-10-28T18:26:36.182Z,22.75
2022-10-28T18:29:05.813Z,20.60
2022-10-28T18:31:33.892Z,21.35
2022-10-28T18:36:46.680Z,19.25
2022-10-28T18:41:58.095Z,20.98
2022-10-28T18:44:32.028Z,20.73
2022-10-28T18:49:45.748Z,16.60
2022-10-28T18:52:12.926Z,15.10
2022-10-28T18:54:40.152Z,15.32
2022-10-28T18:57:07.351Z,14.57
2022-10-28T18:59:35.238Z,17.00
2022-10-28T19:02:04.622Z,16.65
2022-10-28T19:04:31.920Z,19.08
2022-10-28T19:09:43.856Z,14.05
2022-10-28T19:12:11.027Z,14.55
2022-10-28T19:14:38.371Z,18.52
2022-10-28T19:17:05.517Z,17.85
2022-10-28T19:19:35.550Z,16.92
2022-10-28T19:22:05.726Z,17.60
2022-10-28T19:24:32.974Z,18.52
2022-10-28T19:27:00.198Z,19.75
2022-10-28T19:29:27.318Z,18.35
2022-10-28T19:31:54.575Z,17.30
2022-10-28T19:34:21.813Z,17.95
2022-10-28T19:36:49.111Z,17.80
2022-10-28T19:39:16.362Z,21.30
2022-10-28T19:41:43.961Z,19.35
2022-10-28T19:46:55.483Z,15.88
2022-10-28T19:49:26.886Z,16.63
2022-10-28T19:51:55.862Z,19.00
2022-10-28T19:54:23.186Z,16.00
2022-10-28T19:56:50.899Z,19.15
2022-10-28T19:59:18.265Z,18.20
2022-10-28T20:04:29.744Z,18.20
2022-10-28T20:06:59.141Z,17.55
2022-10-28T20:09:28.939Z,18.20
2022-10-28T20:14:23.716Z,18.08
2022-10-28T20:16:51.020Z,16.30
2022-10-28T20:19:18.143Z,18.63
2022-10-28T20:24:30.368Z,15.40
2022-10-28T20:26:57.610Z,20.13
2022-10-28T20:29:24.672Z,22.75
2022-10-28T20:31:52.571Z,18.23
2022-10-28T20:34:19.945Z,20.25
2022-10-28T20:36:46.954Z,19.70
2022-10-28T20:39:19.656Z,17.27
2022-10-28T20:41:48.367Z,14.90
2022-10-28T20:44:15.873Z,17.77
2022-10-28T20:46:45.437Z,17.02
2022-10-28T20:49:13.434Z,17.60
2022-10-28T20:51:41.192Z,17.23
2022-10-28T20:54:08.503Z,15.98
2022-10-28T20:56:38.018Z,14.73
2022-10-28T20:59:05.817Z,16.27
2022-10-28T21:01:39.478Z,20.02
2022-10-28T21:04:09.873Z,18.02
2022-10-28T21:09:23.070Z,16.80
2022-10-28T21:11:50.117Z,15.40
2022-10-28T21:14:17.236Z,19.42
2022-10-28T21:19:29.558Z,17.65
2022-10-28T21:21:56.786Z,19.17
2022-10-28T21:24:23.978Z,17.52
2022-10-28T21:26:52.167Z,19.27
2022-10-28T21:29:19.401Z,17.50
2022-10-28T21:31:50.037Z,17.98
2022-10-28T21:34:17.521Z,22.02
2022-10-28T21:36:44.676Z,17.83
2022-10-28T21:39:11.732Z,18.83
2022-10-28T21:41:38.881Z,15.25
2022-10-28T21:44:06.463Z,15.85
2022-10-28T21:46:33.724Z,18.20
2022-10-28T21:49:01.731Z,20.17
2022-10-28T21:56:57.877Z,21.02
2022-10-28T21:59:24.935Z,18.15
2022-10-28T22:01:52.272Z,14.23
2022-10-28T22:04:19.662Z,18.65
2022-10-28T22:09:15.110Z,16.60
2022-10-28T22:11:42.435Z,18.17
2022-10-28T22:14:09.593Z,17.02
2022-10-28T22:16:36.909Z,18.73
2022-10-28T22:19:07.876Z,18.85
2022-10-28T22:21:40.774Z,21.02
2022-10-28T22:24:08.325Z,18.88
2022-10-28T22:26:35.485Z,23.25
2022-10-28T22:29:02.777Z,17.15
2022-10-28T22:31:32.460Z,25.75
2022-10-28T22:34:00.525Z,19.02
2022-10-28T22:36:29.828Z,16.35
2022-10-28T22:41:42.095Z,15.98
2022-10-28T22:44:09.382Z,19.77
2022-10-28T22:46:36.880Z,22.33
2022-10-28T22:49:04.736Z,19.80
2022-10-28T22:51:32.549Z,20.77
2022-10-28T22:54:00.013Z,17.83
2022-10-28T22:56:27.952Z,21.35
2022-10-28T22:58:57.301Z,18.13
2022-10-28T23:01:26.158Z,16.92
2022-10-28T23:06:39.291Z,22.42
2022-10-28T23:09:06.415Z,19.27
2022-10-28T23:11:33.462Z,24.27
2022-10-28T23:14:01.321Z,17.98
2022-10-28T23:16:28.712Z,18.67
2022-10-28T23:18:56.145Z,19.98
2022-10-28T23:21:25.381Z,21.42
2022-10-28T23:24:00.131Z,21.67
2022-10-28T23:26:29.249Z,17.55
2022-10-28T23:31:44.072Z,22.02
2022-10-28T23:36:55.745Z,19.65
2022-10-28T23:42:07.271Z,20.73
2022-10-28T23:44:34.353Z,23.02
2022-10-28T23:47:01.555Z,16.45
2022-10-28T23:49:28.821Z,20.50
2022-10-28T23:51:56.091Z,19.55
2022-10-28T23:57:08.543Z,19.80
2022-10-28T23:59:35.742Z,22.63
